Main page
METAR-TAF:

METAR-TAF

Airports :

Liège, Belgium

Liège Airport

latitude: 50-39N, longitude: 005-27E, elevation: 186 m

Current weather observation

The report was made 13 minutes ago, at 21:20 UTC
Wind 4 kt from the South
Temperature -1°C
Humidity 64%
Pressure 1027 hPa
Visibility 10 km or more
no clouds below 1500 m and no cumulonimbus

METAR: EBLG 212120Z 18004KT CAVOK M01/M07 Q1027 NOSIG

Time: 22:33 (21:33 UTC)

Forecast

The report was made 4 hours and 30 minutes ago, at 17:03 UTC
Forecast valid from 21 at 18 UTC to 22 at 24 UTC
Wind 4 kt from the South
Visibility 10 km or more
no clouds below 1500 m and no cumulonimbus

TAF: EBLG 211703Z 2118/2224 17004KT CAVOK

Weather observations and forecasts of more than 4000 airports (METAR and TAF reports).

The available stations are represented by yellow and red dots on the map.

Hover mouse over dot to see the name of the station.

Then click to see weather observations and forecasts.

To change the map : click on the green buttons with a black cross to zoom in, on the green button with a dash to zoom out, or on the green arrows for adjacent maps.


METAR-TAF: